sensor_id;sensor_type;location;lat;lon;timestamp;pressure;altitude;pressure_sealevel;temperature;humidity
2549;BME280;1284;53.520;10.248;2023-05-10T00:00:47;100113.00;;;17.77;48.32
2549;BME280;1284;53.520;10.248;2023-05-10T00:03:13;100116.63;;;17.48;48.52
2549;BME280;1284;53.520;10.248;2023-05-10T00:05:38;100120.75;;;17.59;48.77
2549;BME280;1284;53.520;10.248;2023-05-10T00:08:04;100120.66;;;17.63;48.70
2549;BME280;1284;53.520;10.248;2023-05-10T00:10:29;100113.44;;;17.53;48.86
2549;BME280;1284;53.520;10.248;2023-05-10T00:12:57;100101.13;;;17.68;48.92
2549;BME280;1284;53.520;10.248;2023-05-10T00:15:23;100108.41;;;17.74;48.42
2549;BME280;1284;53.520;10.248;2023-05-10T00:17:48;100104.97;;;17.70;48.52
2549;BME280;1284;53.520;10.248;2023-05-10T00:20:14;100101.13;;;17.68;48.52
2549;BME280;1284;53.520;10.248;2023-05-10T00:22:39;100104.13;;;17.50;48.89
2549;BME280;1284;53.520;10.248;2023-05-10T00:25:06;100094.28;;;17.33;49.36
2549;BME280;1284;53.520;10.248;2023-05-10T00:27:31;100097.72;;;17.37;49.49
2549;BME280;1284;53.520;10.248;2023-05-10T00:29:57;100091.56;;;17.33;49.25
2549;BME280;1284;53.520;10.248;2023-05-10T00:32:22;100083.03;;;17.31;49.49
2549;BME280;1284;53.520;10.248;2023-05-10T00:34:48;100083.53;;;17.26;49.58
2549;BME280;1284;53.520;10.248;2023-05-10T00:37:13;100076.66;;;17.41;49.68
2549;BME280;1284;53.520;10.248;2023-05-10T00:39:39;100082.50;;;17.17;49.82
2549;BME280;1284;53.520;10.248;2023-05-10T00:42:04;100081.03;;;17.12;49.94
2549;BME280;1284;53.520;10.248;2023-05-10T00:44:30;100075.44;;;17.19;49.91
2549;BME280;1284;53.520;10.248;2023-05-10T00:46:56;100078.81;;;17.27;49.57
2549;BME280;1284;53.520;10.248;2023-05-10T00:49:22;100078.03;;;17.30;49.79
2549;BME280;1284;53.520;10.248;2023-05-10T00:51:49;100076.66;;;17.41;49.30
2549;BME280;1284;53.520;10.248;2023-05-10T00:54:15;100071.69;;;17.36;49.33
2549;BME280;1284;53.520;10.248;2023-05-10T00:56:41;100072.97;;;17.05;49.75
2549;BME280;1284;53.520;10.248;2023-05-10T00:59:08;100064.81;;;17.05;50.23
2549;BME280;1284;53.520;10.248;2023-05-10T01:01:35;100060.91;;;17.06;50.19
2549;BME280;1284;53.520;10.248;2023-05-10T01:04:01;100061.69;;;17.06;50.14
2549;BME280;1284;53.520;10.248;2023-05-10T01:08:53;100066.47;;;16.99;50.25
2549;BME280;1284;53.520;10.248;2023-05-10T01:11:18;100055.47;;;17.06;49.90
2549;BME280;1284;53.520;10.248;2023-05-10T01:13:47;100058.03;;;16.90;50.36
2549;BME280;1284;53.520;10.248;2023-05-10T01:16:15;100054.50;;;16.93;50.29
2549;BME280;1284;53.520;10.248;2023-05-10T01:18:41;100055.06;;;16.54;50.70
2549;BME280;1284;53.520;10.248;2023-05-10T01:35:03;100065.44;;;16.89;50.42
2549;BME280;1284;53.520;10.248;2023-05-10T01:37:50;100067.34;;;16.66;51.05
2549;BME280;1284;53.520;10.248;2023-05-10T01:40:37;100075.31;;;16.80;51.18
2549;BME280;1284;53.520;10.248;2023-05-10T01:43:08;100066.19;;;16.90;50.70
2549;BME280;1284;53.520;10.248;2023-05-10T01:45:47;100060.56;;;16.51;51.64
2549;BME280;1284;53.520;10.248;2023-05-10T01:48:16;100064.63;;;16.66;51.43
2549;BME280;1284;53.520;10.248;2023-05-10T01:50:45;100058.81;;;16.64;51.01
2549;BME280;1284;53.520;10.248;2023-05-10T01:53:12;100064.16;;;16.71;51.21
2549;BME280;1284;53.520;10.248;2023-05-10T01:55:49;100057.09;;;16.47;51.67
2549;BME280;1284;53.520;10.248;2023-05-10T01:58:36;100049.00;;;16.40;51.88
2549;BME280;1284;53.520;10.248;2023-05-10T02:01:04;100059.44;;;16.45;52.01
2549;BME280;1284;53.520;10.248;2023-05-10T02:03:32;100062.81;;;16.56;52.13
2549;BME280;1284;53.520;10.248;2023-05-10T02:05:59;100060.97;;;16.46;51.81
2549;BME280;1284;53.520;10.248;2023-05-10T02:08:25;100053.50;;;16.53;51.91
2549;BME280;1284;53.520;10.248;2023-05-10T02:10:53;100054.44;;;16.40;52.31
2549;BME280;1284;53.520;10.248;2023-05-10T02:13:21;100056.28;;;16.50;51.92
2549;BME280;1284;53.520;10.248;2023-05-10T02:15:48;100051.94;;;16.22;52.53
2549;BME280;1284;53.520;10.248;2023-05-10T02:18:15;100064.78;;;16.21;52.66
2549;BME280;1284;53.520;10.248;2023-05-10T02:20:45;100055.38;;;16.30;52.56
2549;BME280;1284;53.520;10.248;2023-05-10T02:23:12;100060.59;;;16.44;52.42
2549;BME280;1284;53.520;10.248;2023-05-10T02:25:39;100051.34;;;16.41;52.37
2549;BME280;1284;53.520;10.248;2023-05-10T02:28:05;100050.84;;;16.19;52.35
2549;BME280;1284;53.520;10.248;2023-05-10T02:30:33;100046.88;;;16.24;52.63
2549;BME280;1284;53.520;10.248;2023-05-10T02:32:59;100055.44;;;16.22;52.71
2549;BME280;1284;53.520;10.248;2023-05-10T02:35:26;100039.13;;;16.22;52.85
2549;BME280;1284;53.520;10.248;2023-05-10T02:37:53;100049.59;;;16.24;52.81
2549;BME280;1284;53.520;10.248;2023-05-10T02:40:19;100047.28;;;16.22;52.82
2549;BME280;1284;53.520;10.248;2023-05-10T02:42:47;100040.34;;;16.21;52.85
2549;BME280;1284;53.520;10.248;2023-05-10T02:45:21;100036.69;;;16.01;53.48
2549;BME280;1284;53.520;10.248;2023-05-10T02:47:47;100040.88;;;16.09;53.50
2549;BME280;1284;53.520;10.248;2023-05-10T02:50:13;100042.91;;;15.65;54.21
2549;BME280;1284;53.520;10.248;2023-05-10T02:52:50;100035.69;;;15.88;53.77
2549;BME280;1284;53.520;10.248;2023-05-10T02:55:22;100028.69;;;15.91;53.86
2549;BME280;1284;53.520;10.248;2023-05-10T02:58:08;100034.22;;;15.80;54.33
2549;BME280;1284;53.520;10.248;2023-05-10T03:00:34;100031.88;;;15.82;54.02
2549;BME280;1284;53.520;10.248;2023-05-10T03:03:01;100034.13;;;15.87;53.91
2549;BME280;1284;53.520;10.248;2023-05-10T03:05:27;100022.41;;;15.94;53.67
2549;BME280;1284;53.520;10.248;2023-05-10T03:07:53;100021.09;;;15.75;54.38
2549;BME280;1284;53.520;10.248;2023-05-10T03:10:22;100026.06;;;15.80;54.40
2549;BME280;1284;53.520;10.248;2023-05-10T03:13:07;100020.78;;;15.66;54.42
2549;BME280;1284;53.520;10.248;2023-05-10T03:16:00;100023.06;;;15.71;55.10
2549;BME280;1284;53.520;10.248;2023-05-10T03:18:34;100032.47;;;15.63;54.70
2549;BME280;1284;53.520;10.248;2023-05-10T03:21:04;100031.50;;;15.43;55.48
2549;BME280;1284;53.520;10.248;2023-05-10T03:23:35;100022.97;;;15.45;55.06
2549;BME280;1284;53.520;10.248;2023-05-10T03:26:05;100023.13;;;15.64;55.15
2549;BME280;1284;53.520;10.248;2023-05-10T03:28:33;100028.50;;;15.71;55.45
2549;BME280;1284;53.520;10.248;2023-05-10T03:30:59;100027.47;;;15.58;55.20
2549;BME280;1284;53.520;10.248;2023-05-10T03:33:25;100026.41;;;15.49;55.92
2549;BME280;1284;53.520;10.248;2023-05-10T03:35:51;100034.25;;;15.77;55.41
2549;BME280;1284;53.520;10.248;2023-05-10T03:38:16;100020.97;;;15.52;55.39
2549;BME280;1284;53.520;10.248;2023-05-10T03:40:42;100023.25;;;15.54;55.50
2549;BME280;1284;53.520;10.248;2023-05-10T03:45:35;100025.84;;;15.64;55.41
2549;BME280;1284;53.520;10.248;2023-05-10T03:48:00;100019.69;;;15.60;55.52
2549;BME280;1284;53.520;10.248;2023-05-10T03:50:26;100030.19;;;15.58;55.13
2549;BME280;1284;53.520;10.248;2023-05-10T03:52:52;100020.38;;;15.71;55.37
2549;BME280;1284;53.520;10.248;2023-05-10T03:55:18;100031.13;;;15.78;55.03
2549;BME280;1284;53.520;10.248;2023-05-10T03:57:44;100036.19;;;15.76;55.37
2549;BME280;1284;53.520;10.248;2023-05-10T04:00:10;100028.28;;;15.55;55.50
2549;BME280;1284;53.520;10.248;2023-05-10T04:02:41;100031.19;;;15.75;55.25
2549;BME280;1284;53.520;10.248;2023-05-10T04:05:11;100031.81;;;15.52;55.62
2549;BME280;1284;53.520;10.248;2023-05-10T04:07:36;100026.06;;;15.43;56.80
2549;BME280;1284;53.520;10.248;2023-05-10T04:10:02;100015.91;;;15.51;56.79
2549;BME280;1284;53.520;10.248;2023-05-10T04:12:27;100031.44;;;15.50;56.67
2549;BME280;1284;53.520;10.248;2023-05-10T04:14:53;100032.19;;;15.51;56.44
2549;BME280;1284;53.520;10.248;2023-05-10T04:17:18;100023.53;;;15.63;56.15
2549;BME280;1284;53.520;10.248;2023-05-10T04:19:44;100021.47;;;15.74;56.05
2549;BME280;1284;53.520;10.248;2023-05-10T04:22:09;100010.09;;;15.86;55.52
2549;BME280;1284;53.520;10.248;2023-05-10T04:24:35;100017.16;;;15.80;55.98
2549;BME280;1284;53.520;10.248;2023-05-10T04:27:00;100016.31;;;15.86;55.77
2549;BME280;1284;53.520;10.248;2023-05-10T04:29:25;100023.81;;;15.34;57.09
2549;BME280;1284;53.520;10.248;2023-05-10T04:31:51;100021.47;;;15.36;57.08
2549;BME280;1284;53.520;10.248;2023-05-10T04:34:17;100022.56;;;15.46;57.36
2549;BME280;1284;53.520;10.248;2023-05-10T04:36:42;100020.88;;;15.59;56.43
2549;BME280;1284;53.520;10.248;2023-05-10T04:39:08;100016.00;;;15.40;57.63
2549;BME280;1284;53.520;10.248;2023-05-10T04:41:34;100019.03;;;15.49;58.04
2549;BME280;1284;53.520;10.248;2023-05-10T04:44:00;100016.22;;;15.60;57.16
2549;BME280;1284;53.520;10.248;2023-05-10T04:46:25;100018.91;;;15.63;57.21
2549;BME280;1284;53.520;10.248;2023-05-10T04:48:54;100020.41;;;15.64;57.92
2549;BME280;1284;53.520;10.248;2023-05-10T04:51:19;100029.88;;;15.49;57.59
2549;BME280;1284;53.520;10.248;2023-05-10T04:53:45;100022.72;;;15.69;57.37
2549;BME280;1284;53.520;10.248;2023-05-10T04:56:11;100024.66;;;15.69;57.04
2549;BME280;1284;53.520;10.248;2023-05-10T04:58:36;100029.84;;;15.56;57.62
2549;BME280;1284;53.520;10.248;2023-05-10T05:01:08;100022.66;;;15.73;56.96
2549;BME280;1284;53.520;10.248;2023-05-10T05:03:36;100031.19;;;15.75;56.94
2549;BME280;1284;53.520;10.248;2023-05-10T05:06:01;100027.59;;;15.85;57.01
2549;BME280;1284;53.520;10.248;2023-05-10T05:08:27;100024.91;;;15.81;57.18
2549;BME280;1284;53.520;10.248;2023-05-10T05:10:52;100028.16;;;15.99;56.47
2549;BME280;1284;53.520;10.248;2023-05-10T05:13:18;100020.47;;;15.94;56.68
2549;BME280;1284;53.520;10.248;2023-05-10T05:15:43;100015.34;;;15.70;57.12
2549;BME280;1284;53.520;10.248;2023-05-10T05:18:09;100020.06;;;15.96;57.11
2549;BME280;1284;53.520;10.248;2023-05-10T05:20:34;100021.75;;;16.16;57.20
2549;BME280;1284;53.520;10.248;2023-05-10T05:23:00;100032.63;;;16.16;56.83
2549;BME280;1284;53.520;10.248;2023-05-10T05:25:26;100032.34;;;15.74;57.58
2549;BME280;1284;53.520;10.248;2023-05-10T05:27:51;100029.31;;;16.32;57.21
2549;BME280;1284;53.520;10.248;2023-05-10T05:30:17;100023.56;;;16.83;55.54
2549;BME280;1284;53.520;10.248;2023-05-10T05:32:42;100028.38;;;17.22;54.21
2549;BME280;1284;53.520;10.248;2023-05-10T05:35:08;100033.22;;;17.11;53.33
2549;BME280;1284;53.520;10.248;2023-05-10T05:37:33;100036.06;;;17.27;53.35
2549;BME280;1284;53.520;10.248;2023-05-10T05:39:59;100033.34;;;17.50;52.60
2549;BME280;1284;53.520;10.248;2023-05-10T05:42:26;100045.81;;;17.48;53.11
2549;BME280;1284;53.520;10.248;2023-05-10T05:44:52;100037.25;;;17.92;52.29
2549;BME280;1284;53.520;10.248;2023-05-10T05:47:17;100041.41;;;18.16;51.95
2549;BME280;1284;53.520;10.248;2023-05-10T05:49:42;100036.19;;;18.41;51.45
2549;BME280;1284;53.520;10.248;2023-05-10T05:54:36;100032.31;;;18.42;51.30
2549;BME280;1284;53.520;10.248;2023-05-10T05:57:01;100034.28;;;18.02;51.46
2549;BME280;1284;53.520;10.248;2023-05-10T05:59:27;100045.00;;;18.13;51.48
2549;BME280;1284;53.520;10.248;2023-05-10T06:01:53;100044.13;;;17.96;51.51
2549;BME280;1284;53.520;10.248;2023-05-10T06:04:19;100044.44;;;17.82;52.05
2549;BME280;1284;53.520;10.248;2023-05-10T06:06:45;100046.22;;;17.89;51.45
2549;BME280;1284;53.520;10.248;2023-05-10T06:09:11;100051.06;;;17.81;52.54
2549;BME280;1284;53.520;10.248;2023-05-10T06:11:36;100041.25;;;17.64;52.73
2549;BME280;1284;53.520;10.248;2023-05-10T06:14:03;100043.72;;;17.78;52.88
2549;BME280;1284;53.520;10.248;2023-05-10T06:16:30;100052.28;;;18.00;52.01
2549;BME280;1284;53.520;10.248;2023-05-10T06:18:55;100050.63;;;18.22;52.18
2549;BME280;1284;53.520;10.248;2023-05-10T06:21:21;100051.00;;;18.44;52.10
2549;BME280;1284;53.520;10.248;2023-05-10T06:23:47;100060.34;;;18.43;51.77
2549;BME280;1284;53.520;10.248;2023-05-10T06:26:12;100056.44;;;18.04;51.98
2549;BME280;1284;53.520;10.248;2023-05-10T06:28:39;100059.66;;;17.99;53.01
2549;BME280;1284;53.520;10.248;2023-05-10T06:31:05;100067.19;;;18.51;52.62
2549;BME280;1284;53.520;10.248;2023-05-10T06:33:31;100062.81;;;18.73;50.32
2549;BME280;1284;53.520;10.248;2023-05-10T06:35:57;100065.94;;;18.55;51.22
2549;BME280;1284;53.520;10.248;2023-05-10T06:38:22;100070.88;;;19.12;50.51
2549;BME280;1284;53.520;10.248;2023-05-10T06:40:48;100077.78;;;19.33;50.68
2549;BME280;1284;53.520;10.248;2023-05-10T06:43:13;100066.41;;;19.18;49.92
2549;BME280;1284;53.520;10.248;2023-05-10T06:45:39;100072.31;;;19.17;49.70
2549;BME280;1284;53.520;10.248;2023-05-10T06:48:04;100075.03;;;19.17;50.01
2549;BME280;1284;53.520;10.248;2023-05-10T06:50:30;100071.75;;;19.41;49.60
2549;BME280;1284;53.520;10.248;2023-05-10T06:52:55;100073.47;;;19.32;49.19
2549;BME280;1284;53.520;10.248;2023-05-10T06:55:21;100069.66;;;19.45;49.46
2549;BME280;1284;53.520;10.248;2023-05-10T06:57:46;100069.84;;;19.54;49.09
2549;BME280;1284;53.520;10.248;2023-05-10T07:00:16;100068.03;;;19.32;49.48
2549;BME280;1284;53.520;10.248;2023-05-10T07:02:42;100081.25;;;19.17;49.31
2549;BME280;1284;53.520;10.248;2023-05-10T07:05:08;100078.47;;;19.37;50.51
2549;BME280;1284;53.520;10.248;2023-05-10T07:07:33;100072.16;;;19.40;49.72
2549;BME280;1284;53.520;10.248;2023-05-10T07:10:00;100079.72;;;19.64;50.26
2549;BME280;1284;53.520;10.248;2023-05-10T07:12:25;100077.69;;;19.36;49.85
2549;BME280;1284;53.520;10.248;2023-05-10T07:14:51;100076.22;;;19.32;49.72
2549;BME280;1284;53.520;10.248;2023-05-10T07:17:17;100080.94;;;19.31;48.83
2549;BME280;1284;53.520;10.248;2023-05-10T07:19:42;100086.25;;;19.38;50.01
2549;BME280;1284;53.520;10.248;2023-05-10T07:22:08;100081.34;;;19.91;49.21
2549;BME280;1284;53.520;10.248;2023-05-10T07:24:34;100080.19;;;19.92;48.88
2549;BME280;1284;53.520;10.248;2023-05-10T07:26:59;100083.16;;;20.10;49.04
2549;BME280;1284;53.520;10.248;2023-05-10T07:29:25;100080.97;;;20.05;49.02
2549;BME280;1284;53.520;10.248;2023-05-10T07:31:50;100087.50;;;19.66;49.09
2549;BME280;1284;53.520;10.248;2023-05-10T07:34:15;100092.47;;;20.12;48.34
2549;BME280;1284;53.520;10.248;2023-05-10T07:36:41;100086.09;;;20.03;48.12
2549;BME280;1284;53.520;10.248;2023-05-10T07:39:06;100090.53;;;20.13;48.48
2549;BME280;1284;53.520;10.248;2023-05-10T07:41:32;100094.75;;;20.42;47.10
2549;BME280;1284;53.520;10.248;2023-05-10T07:43:58;100089.63;;;19.58;49.17
2549;BME280;1284;53.520;10.248;2023-05-10T07:46:23;100090.81;;;20.31;48.74
2549;BME280;1284;53.520;10.248;2023-05-10T07:48:48;100086.19;;;20.69;46.63
2549;BME280;1284;53.520;10.248;2023-05-10T07:51:14;100087.94;;;20.88;47.44
2549;BME280;1284;53.520;10.248;2023-05-10T07:53:39;100088.91;;;20.94;47.73
2549;BME280;1284;53.520;10.248;2023-05-10T07:56:24;100081.94;;;21.06;47.32
2549;BME280;1284;53.520;10.248;2023-05-10T07:58:51;100091.09;;;20.74;46.65
2549;BME280;1284;53.520;10.248;2023-05-10T08:01:17;100085.81;;;20.54;47.43
2549;BME280;1284;53.520;10.248;2023-05-10T08:03:43;100096.25;;;20.72;48.25
2549;BME280;1284;53.520;10.248;2023-05-10T08:06:08;100096.25;;;20.85;46.88
2549;BME280;1284;53.520;10.248;2023-05-10T08:08:34;100098.59;;;20.45;47.44
2549;BME280;1284;53.520;10.248;2023-05-10T08:10:59;100105.53;;;20.49;48.04
2549;BME280;1284;53.520;10.248;2023-05-10T08:13:25;100105.03;;;20.38;47.83
2549;BME280;1284;53.520;10.248;2023-05-10T08:15:50;100106.59;;;20.52;47.33
2549;BME280;1284;53.520;10.248;2023-05-10T08:18:18;100107.88;;;20.35;48.10
2549;BME280;1284;53.520;10.248;2023-05-10T08:20:44;100106.81;;;20.16;48.18
2549;BME280;1284;53.520;10.248;2023-05-10T08:23:09;100114.44;;;19.32;49.28
2549;BME280;1284;53.520;10.248;2023-05-10T08:25:37;100107.00;;;18.84;50.51
2549;BME280;1284;53.520;10.248;2023-05-10T08:28:03;100105.50;;;19.15;50.16
2549;BME280;1284;53.520;10.248;2023-05-10T08:30:28;100113.72;;;19.47;50.27
2549;BME280;1284;53.520;10.248;2023-05-10T08:32:53;100101.31;;;19.27;50.15
2549;BME280;1284;53.520;10.248;2023-05-10T08:35:19;100111.06;;;19.44;50.54
2549;BME280;1284;53.520;10.248;2023-05-10T08:37:44;100112.09;;;19.95;49.35
2549;BME280;1284;53.520;10.248;2023-05-10T08:40:11;100106.75;;;19.75;49.54
2549;BME280;1284;53.520;10.248;2023-05-10T08:42:45;100113.06;;;20.17;49.09
2549;BME280;1284;53.520;10.248;2023-05-10T08:45:13;100119.25;;;20.21;48.97
2549;BME280;1284;53.520;10.248;2023-05-10T08:47:40;100123.75;;;20.11;48.78
2549;BME280;1284;53.520;10.248;2023-05-10T08:50:09;100128.16;;;20.50;48.22
2549;BME280;1284;53.520;10.248;2023-05-10T08:52:38;100130.94;;;20.62;48.58
2549;BME280;1284;53.520;10.248;2023-05-10T08:55:05;100136.56;;;20.84;47.74
2549;BME280;1284;53.520;10.248;2023-05-10T08:57:31;100133.44;;;20.57;47.46
2549;BME280;1284;53.520;10.248;2023-05-10T08:59:57;100131.91;;;20.56;48.46
2549;BME280;1284;53.520;10.248;2023-05-10T09:02:25;100138.41;;;20.87;48.11
2549;BME280;1284;53.520;10.248;2023-05-10T09:04:50;100149.56;;;20.80;48.82
2549;BME280;1284;53.520;10.248;2023-05-10T09:07:16;100147.25;;;20.66;48.83
2549;BME280;1284;53.520;10.248;2023-05-10T09:09:42;100146.00;;;20.42;48.93
2549;BME280;1284;53.520;10.248;2023-05-10T09:12:09;100149.78;;;20.32;49.35
2549;BME280;1284;53.520;10.248;2023-05-10T09:14:37;100143.69;;;19.96;50.16
2549;BME280;1284;53.520;10.248;2023-05-10T09:17:03;100154.16;;;20.13;50.46
2549;BME280;1284;53.520;10.248;2023-05-10T09:19:29;100152.63;;;19.67;50.38
2549;BME280;1284;53.520;10.248;2023-05-10T09:21:57;100161.84;;;19.90;50.36
2549;BME280;1284;53.520;10.248;2023-05-10T09:24:26;100156.31;;;20.06;51.59
2549;BME280;1284;53.520;10.248;2023-05-10T09:26:56;100162.25;;;20.33;50.96
2549;BME280;1284;53.520;10.248;2023-05-10T09:29:22;100160.59;;;19.62;51.48
2549;BME280;1284;53.520;10.248;2023-05-10T09:31:51;100164.34;;;19.68;51.91
2549;BME280;1284;53.520;10.248;2023-05-10T09:34:29;100163.34;;;20.07;51.16
2549;BME280;1284;53.520;10.248;2023-05-10T09:36:57;100167.41;;;20.31;50.67
2549;BME280;1284;53.520;10.248;2023-05-10T09:39:33;100175.38;;;20.25;50.66
2549;BME280;1284;53.520;10.248;2023-05-10T09:42:00;100173.44;;;20.38;51.59
2549;BME280;1284;53.520;10.248;2023-05-10T09:44:26;100182.28;;;20.14;50.77
2549;BME280;1284;53.520;10.248;2023-05-10T09:46:52;100181.47;;;19.85;51.47
2549;BME280;1284;53.520;10.248;2023-05-10T09:49:21;100186.25;;;19.97;51.58
2549;BME280;1284;53.520;10.248;2023-05-10T09:51:47;100177.75;;;19.46;52.36
2549;BME280;1284;53.520;10.248;2023-05-10T09:54:22;100188.41;;;19.57;52.58
2549;BME280;1284;53.520;10.248;2023-05-10T09:56:49;100180.16;;;19.60;52.98
2549;BME280;1284;53.520;10.248;2023-05-10T09:59:14;100193.28;;;19.65;53.21
2549;BME280;1284;53.520;10.248;2023-05-10T10:01:40;100191.16;;;19.41;53.59
2549;BME280;1284;53.520;10.248;2023-05-10T10:04:09;100190.53;;;19.49;53.98
2549;BME280;1284;53.520;10.248;2023-05-10T10:06:39;100201.91;;;19.80;53.63
2549;BME280;1284;53.520;10.248;2023-05-10T10:09:08;100205.00;;;19.66;53.70
2549;BME280;1284;53.520;10.248;2023-05-10T10:11:38;100190.22;;;19.63;54.57
2549;BME280;1284;53.520;10.248;2023-05-10T10:14:04;100205.41;;;19.64;54.44
2549;BME280;1284;53.520;10.248;2023-05-10T10:16:31;100205.72;;;19.34;54.62
2549;BME280;1284;53.520;10.248;2023-05-10T10:18:56;100206.81;;;19.01;56.23
2549;BME280;1284;53.520;10.248;2023-05-10T10:21:23;100206.66;;;19.28;57.36
2549;BME280;1284;53.520;10.248;2023-05-10T10:23:48;100212.06;;;19.47;57.61
2549;BME280;1284;53.520;10.248;2023-05-10T10:26:15;100210.09;;;19.48;58.81
2549;BME280;1284;53.520;10.248;2023-05-10T10:29:23;100208.88;;;19.33;61.81
2549;BME280;1284;53.520;10.248;2023-05-10T10:31:55;100221.34;;;19.34;62.33
2549;BME280;1284;53.520;10.248;2023-05-10T10:34:29;100225.78;;;19.44;64.75
2549;BME280;1284;53.520;10.248;2023-05-10T10:36:57;100227.94;;;19.52;68.20
2549;BME280;1284;53.520;10.248;2023-05-10T10:39:23;100224.97;;;19.47;69.35
2549;BME280;1284;53.520;10.248;2023-05-10T10:41:54;100238.28;;;19.45;71.27
2549;BME280;1284;53.520;10.248;2023-05-10T10:50:04;100243.59;;;18.97;76.36
2549;BME280;1284;53.520;10.248;2023-05-10T10:52:32;100249.03;;;18.97;77.95
2549;BME280;1284;53.520;10.248;2023-05-10T10:55:09;100250.47;;;18.85;78.92
2549;BME280;1284;53.520;10.248;2023-05-10T11:00:19;100256.88;;;18.95;79.31
2549;BME280;1284;53.520;10.248;2023-05-10T11:02:49;100252.94;;;18.96;80.00
2549;BME280;1284;53.520;10.248;2023-05-10T11:10:51;100262.88;;;19.06;79.59
2549;BME280;1284;53.520;10.248;2023-05-10T11:16:22;100259.19;;;18.76;82.08
2549;BME280;1284;53.520;10.248;2023-05-10T11:21:17;100270.34;;;18.43;82.84
2549;BME280;1284;53.520;10.248;2023-05-10T11:23:55;100268.41;;;18.63;82.04
2549;BME280;1284;53.520;10.248;2023-05-10T11:26:31;100276.41;;;18.73;82.21
2549;BME280;1284;53.520;10.248;2023-05-10T11:28:57;100275.78;;;18.66;80.91
2549;BME280;1284;53.520;10.248;2023-05-10T11:31:27;100268.66;;;18.49;83.56
2549;BME280;1284;53.520;10.248;2023-05-10T11:33:54;100274.72;;;18.37;81.77
2549;BME280;1284;53.520;10.248;2023-05-10T11:36:23;100272.56;;;17.78;85.78
2549;BME280;1284;53.520;10.248;2023-05-10T11:38:48;100270.94;;;18.08;84.10
2549;BME280;1284;53.520;10.248;2023-05-10T11:41:16;100277.19;;;18.04;84.44
2549;BME280;1284;53.520;10.248;2023-05-10T11:43:42;100284.66;;;18.00;85.67
2549;BME280;1284;53.520;10.248;2023-05-10T11:46:10;100279.06;;;18.11;85.89
2549;BME280;1284;53.520;10.248;2023-05-10T11:48:38;100278.56;;;18.39;85.62
2549;BME280;1284;53.520;10.248;2023-05-10T11:51:04;100288.22;;;18.67;85.79
2549;BME280;1284;53.520;10.248;2023-05-10T11:53:31;100275.91;;;18.98;84.60
2549;BME280;1284;53.520;10.248;2023-05-10T11:56:07;100293.00;;;19.02;84.46
2549;BME280;1284;53.520;10.248;2023-05-10T11:58:33;100292.41;;;19.11;84.64
2549;BME280;1284;53.520;10.248;2023-05-10T12:00:59;100294.75;;;18.92;83.47
2549;BME280;1284;53.520;10.248;2023-05-10T12:03:29;100293.59;;;18.70;84.90
2549;BME280;1284;53.520;10.248;2023-05-10T12:05:55;100295.72;;;19.02;85.17
2549;BME280;1284;53.520;10.248;2023-05-10T12:08:26;100293.59;;;18.70;85.05
2549;BME280;1284;53.520;10.248;2023-05-10T12:11:04;100296.84;;;18.42;86.40
2549;BME280;1284;53.520;10.248;2023-05-10T12:13:29;100291.84;;;18.80;86.14
2549;BME280;1284;53.520;10.248;2023-05-10T12:15:58;100303.75;;;19.09;85.18
2549;BME280;1284;53.520;10.248;2023-05-10T12:18:24;100305.22;;;18.74;85.05
2549;BME280;1284;53.520;10.248;2023-05-10T12:20:54;100308.16;;;18.64;85.59
2549;BME280;1284;53.520;10.248;2023-05-10T12:23:20;100307.22;;;18.51;85.52
2549;BME280;1284;53.520;10.248;2023-05-10T12:25:45;100310.53;;;18.62;84.46
2549;BME280;1284;53.520;10.248;2023-05-10T12:28:11;100318.13;;;18.51;86.99
2549;BME280;1284;53.520;10.248;2023-05-10T12:30:37;100314.66;;;18.70;86.21
2549;BME280;1284;53.520;10.248;2023-05-10T12:33:11;100326.41;;;18.67;86.63
2549;BME280;1284;53.520;10.248;2023-05-10T12:35:51;100327.78;;;18.98;85.04
2549;BME280;1284;53.520;10.248;2023-05-10T12:40:52;100328.22;;;19.16;85.69
2549;BME280;1284;53.520;10.248;2023-05-10T12:43:17;100330.69;;;18.45;88.20
2549;BME280;1284;53.520;10.248;2023-05-10T12:45:43;100335.41;;;18.41;87.18
2549;BME280;1284;53.520;10.248;2023-05-10T12:48:13;100333.72;;;18.27;88.00
2549;BME280;1284;53.520;10.248;2023-05-10T12:50:38;100332.50;;;18.05;89.70
2549;BME280;1284;53.520;10.248;2023-05-10T12:53:03;100338.75;;;18.29;90.62
2549;BME280;1284;53.520;10.248;2023-05-10T12:55:29;100337.31;;;18.67;90.73
2549;BME280;1284;53.520;10.248;2023-05-10T12:57:54;100348.56;;;19.12;88.90
2549;BME280;1284;53.520;10.248;2023-05-10T13:00:20;100347.53;;;19.06;88.09
2549;BME280;1284;53.520;10.248;2023-05-10T13:02:45;100352.84;;;19.13;86.30
2549;BME280;1284;53.520;10.248;2023-05-10T13:05:11;100349.25;;;18.96;84.99
2549;BME280;1284;53.520;10.248;2023-05-10T13:07:38;100349.25;;;18.96;86.17
2549;BME280;1284;53.520;10.248;2023-05-10T13:10:07;100352.09;;;19.12;85.79
2549;BME280;1284;53.520;10.248;2023-05-10T13:12:33;100356.50;;;19.26;86.17
2549;BME280;1284;53.520;10.248;2023-05-10T13:14:58;100349.16;;;19.42;85.97
2549;BME280;1284;53.520;10.248;2023-05-10T13:17:25;100345.25;;;19.43;83.73
2549;BME280;1284;53.520;10.248;2023-05-10T13:19:51;100346.94;;;19.37;84.52
2549;BME280;1284;53.520;10.248;2023-05-10T13:22:19;100349.91;;;19.23;84.66
2549;BME280;1284;53.520;10.248;2023-05-10T13:24:45;100354.06;;;19.51;84.52
2549;BME280;1284;53.520;10.248;2023-05-10T13:27:10;100350.84;;;19.36;83.81
2549;BME280;1284;53.520;10.248;2023-05-10T13:29:36;100349.22;;;19.58;83.12
2549;BME280;1284;53.520;10.248;2023-05-10T13:32:02;100351.94;;;19.58;82.09
2549;BME280;1284;53.520;10.248;2023-05-10T13:34:27;100349.75;;;19.30;82.86
2549;BME280;1284;53.520;10.248;2023-05-10T13:36:53;100354.28;;;18.78;86.04
2549;BME280;1284;53.520;10.248;2023-05-10T13:39:20;100347.16;;;19.04;86.25
2549;BME280;1284;53.520;10.248;2023-05-10T13:41:46;100354.63;;;19.42;84.88
2549;BME280;1284;53.520;10.248;2023-05-10T13:44:12;100355.72;;;19.25;84.30